createdAt,value
2023-04-02T00:00:18.885Z,7.93
2023-04-02T00:05:52.161Z,8.02
2023-04-02T00:10:57.812Z,7.87
2023-04-02T00:16:04.389Z,7.81
2023-04-02T00:21:13.720Z,7.64
2023-04-02T00:26:25.514Z,7.72
2023-04-02T00:31:31.027Z,7.17
2023-04-02T00:36:35.875Z,7.25
2023-04-02T00:41:39.130Z,6.79
2023-04-02T00:46:49.537Z,6.90
2023-04-02T00:51:55.813Z,7.10
2023-04-02T00:56:59.857Z,6.75
2023-04-02T01:02:26.478Z,6.81
2023-04-02T01:07:48.415Z,6.67
2023-04-02T01:12:59.853Z,6.67
2023-04-02T01:18:18.613Z,6.56
2023-04-02T01:23:29.467Z,6.35
2023-04-02T01:28:46.550Z,6.17
2023-04-02T01:33:49.966Z,5.94
2023-04-02T01:39:02.223Z,5.96
2023-04-02T01:44:08.870Z,6.00
2023-04-02T01:49:15.157Z,5.96
2023-04-02T01:54:19.024Z,5.72
2023-04-02T01:59:24.245Z,5.73
2023-04-02T02:04:33.507Z,5.72
2023-04-02T02:09:37.260Z,5.91
2023-04-02T02:14:48.148Z,5.52
2023-04-02T02:19:54.790Z,5.35
2023-04-02T02:25:00.284Z,5.30
2023-04-02T02:30:12.399Z,5.19
2023-04-02T02:35:22.157Z,4.98
2023-04-02T02:40:30.973Z,5.08
2023-04-02T02:45:39.753Z,4.92
2023-04-02T02:50:44.277Z,5.29
2023-04-02T02:55:50.905Z,4.94
2023-04-02T03:00:59.966Z,5.30
2023-04-02T03:06:06.945Z,4.95
2023-04-02T03:11:17.015Z,5.00
2023-04-02T03:16:29.967Z,4.87
2023-04-02T03:21:40.699Z,4.70
2023-04-02T03:26:50.153Z,4.57
2023-04-02T03:32:01.564Z,4.60
2023-04-02T03:37:12.508Z,4.64
2023-04-02T03:42:21.386Z,4.63
2023-04-02T03:47:34.373Z,4.24
2023-04-02T03:52:40.041Z,4.24
2023-04-02T03:57:55.151Z,4.19
2023-04-02T04:03:11.189Z,4.07
2023-04-02T04:08:18.297Z,4.08
2023-04-02T04:13:27.420Z,3.93
2023-04-02T04:18:37.911Z,3.93
2023-04-02T04:23:52.200Z,3.87
2023-04-02T04:29:09.811Z,3.93
2023-04-02T04:34:20.259Z,3.74
2023-04-02T04:39:31.736Z,3.84
2023-04-02T04:44:42.390Z,4.15
2023-04-02T04:49:53.933Z,4.18
2023-04-02T04:54:58.016Z,3.77
2023-04-02T05:00:12.952Z,3.59
2023-04-02T05:05:21.675Z,3.28
2023-04-02T05:10:35.952Z,3.55
2023-04-02T05:15:42.808Z,3.31
2023-04-02T05:20:53.326Z,3.19
2023-04-02T05:26:02.975Z,3.26
2023-04-02T05:31:12.193Z,3.24
2023-04-02T05:36:24.473Z,2.99
2023-04-02T05:41:36.799Z,3.36
2023-04-02T05:46:47.502Z,3.52
2023-04-02T05:51:57.938Z,3.39
2023-04-02T05:57:04.854Z,3.39
2023-04-02T06:02:22.206Z,2.91
2023-04-02T06:07:32.138Z,3.04
2023-04-02T06:12:41.252Z,3.14
2023-04-02T06:17:48.310Z,2.72
2023-04-02T06:22:56.769Z,2.96
2023-04-02T06:28:04.409Z,2.98
2023-04-02T06:33:08.945Z,3.19
2023-04-02T06:38:21.830Z,2.99
2023-04-02T06:43:33.756Z,3.04
2023-04-02T06:49:00.304Z,2.78
2023-04-02T06:54:05.005Z,2.55
2023-04-02T06:59:08.372Z,2.82
2023-04-02T07:04:12.073Z,2.68
2023-04-02T07:09:22.061Z,2.74
2023-04-02T07:14:29.459Z,2.57
2023-04-02T07:19:32.407Z,2.88
2023-04-02T07:24:37.482Z,2.69
2023-04-02T07:29:43.016Z,2.71
2023-04-02T07:34:46.070Z,2.33
2023-04-02T07:39:50.434Z,2.52
2023-04-02T07:44:53.362Z,2.46
2023-04-02T07:49:56.278Z,2.44
2023-04-02T07:55:02.093Z,2.37
2023-04-02T08:00:07.498Z,2.29
2023-04-02T08:05:30.352Z,2.50
2023-04-02T08:10:34.645Z,2.46
2023-04-02T08:15:37.839Z,2.53
2023-04-02T08:20:40.924Z,2.45
2023-04-02T08:25:45.518Z,2.77
2023-04-02T08:30:50.072Z,2.55
2023-04-02T08:35:53.130Z,2.73
2023-04-02T08:41:03.086Z,3.01
2023-04-02T08:46:14.148Z,2.91
2023-04-02T08:51:24.777Z,2.53
2023-04-02T08:56:35.029Z,2.72
2023-04-02T09:01:48.335Z,2.78
2023-04-02T09:06:53.614Z,3.00
2023-04-02T09:12:01.278Z,2.75
2023-04-02T09:17:05.653Z,2.94
2023-04-02T09:22:15.853Z,3.15
2023-04-02T09:27:22.243Z,2.96
2023-04-02T09:32:49.966Z,3.38
2023-04-02T09:38:16.403Z,2.98
2023-04-02T09:43:23.043Z,3.08
2023-04-02T09:48:30.314Z,2.72
2023-04-02T09:53:36.158Z,2.67
2023-04-02T09:58:41.173Z,2.49
2023-04-02T10:03:44.573Z,2.80
2023-04-02T10:08:48.021Z,2.81
2023-04-02T10:13:54.457Z,2.67
2023-04-02T10:18:59.799Z,2.63
2023-04-02T10:24:03.047Z,2.90
2023-04-02T10:29:30.144Z,3.24
2023-04-02T10:34:42.873Z,3.12
2023-04-02T10:39:52.460Z,3.12
2023-04-02T10:45:04.812Z,3.33
2023-04-02T10:50:29.468Z,3.08
2023-04-02T10:55:39.844Z,3.57
2023-04-02T11:00:47.816Z,3.53
2023-04-02T11:05:52.510Z,3.68
2023-04-02T11:11:04.470Z,3.24
2023-04-02T11:16:09.422Z,3.50
2023-04-02T11:21:54.957Z,3.30
2023-04-02T11:27:16.999Z,3.50
2023-04-02T11:32:34.664Z,3.36
2023-04-02T11:37:39.844Z,3.60
2023-04-02T11:42:43.752Z,3.66
2023-04-02T11:48:27.757Z,3.71
2023-04-02T11:53:34.830Z,3.95
2023-04-02T11:58:51.005Z,3.48
2023-04-02T12:04:08.961Z,3.49
2023-04-02T12:09:22.454Z,3.65
2023-04-02T12:14:42.922Z,3.67
2023-04-02T12:19:52.474Z,3.79
2023-04-02T12:24:58.202Z,4.07
2023-04-02T12:30:14.547Z,3.95
2023-04-02T12:35:29.362Z,4.09
2023-04-02T12:40:32.360Z,4.29
2023-04-02T12:45:36.628Z,4.28
2023-04-02T12:50:41.916Z,4.60
2023-04-02T12:55:48.418Z,4.60
2023-04-02T13:00:51.363Z,4.41
2023-04-02T13:05:57.803Z,4.51
2023-04-02T13:11:02.637Z,4.54
2023-04-02T13:16:10.090Z,4.55
2023-04-02T13:21:28.738Z,4.69
2023-04-02T13:26:31.914Z,4.86
2023-04-02T13:31:34.869Z,4.62
2023-04-02T13:36:39.273Z,4.38
2023-04-02T13:41:44.413Z,4.57
2023-04-02T13:46:47.662Z,4.45
2023-04-02T13:51:53.746Z,4.37
2023-04-02T13:56:57.224Z,4.17
2023-04-02T14:02:05.620Z,4.34
2023-04-02T14:07:38.254Z,4.35
2023-04-02T14:12:54.028Z,4.08
2023-04-02T14:18:11.369Z,4.23
2023-04-02T14:23:31.394Z,4.08
2023-04-02T14:28:44.966Z,3.99
2023-04-02T14:33:59.393Z,4.25
2023-04-02T14:39:12.119Z,3.97
2023-04-02T14:44:18.019Z,4.24
2023-04-02T14:49:27.305Z,4.24
2023-04-02T14:54:37.463Z,4.38
2023-04-02T14:59:51.698Z,4.32
2023-04-02T15:05:01.519Z,3.88
2023-04-02T15:10:15.476Z,3.99
2023-04-02T15:15:36.930Z,4.07
2023-04-02T15:20:53.425Z,4.01
2023-04-02T15:26:08.219Z,4.08
2023-04-02T15:31:14.954Z,4.21
2023-04-02T15:36:33.825Z,4.03
2023-04-02T15:41:42.506Z,4.03
2023-04-02T15:46:55.439Z,4.15
2023-04-02T15:52:09.146Z,4.37
2023-04-02T15:57:23.246Z,4.35
2023-04-02T16:02:46.490Z,4.30
2023-04-02T16:08:09.127Z,4.27
2023-04-02T16:13:19.203Z,4.34
2023-04-02T16:18:34.007Z,4.53
2023-04-02T16:23:38.853Z,4.21
2023-04-02T16:28:50.130Z,4.11
2023-04-02T16:34:02.558Z,4.27
2023-04-02T16:39:14.829Z,4.32
2023-04-02T16:44:31.456Z,4.25
2023-04-02T16:49:38.699Z,4.47
2023-04-02T16:54:50.876Z,4.26
2023-04-02T17:00:02.318Z,4.19
2023-04-02T17:05:15.980Z,4.21
2023-04-02T17:10:30.101Z,4.26
2023-04-02T17:15:40.690Z,4.21
2023-04-02T17:20:43.726Z,4.27
2023-04-02T17:25:51.790Z,4.06
2023-04-02T17:30:59.776Z,4.05
2023-04-02T17:36:24.057Z,4.05
2023-04-02T17:41:35.361Z,4.15
2023-04-02T17:46:47.117Z,4.25
2023-04-02T17:51:56.167Z,4.08
2023-04-02T17:57:27.893Z,3.90
2023-04-02T18:02:56.954Z,4.23
2023-04-02T18:08:13.384Z,4.34
2023-04-02T18:13:27.573Z,4.02
2023-04-02T18:18:50.730Z,3.94
2023-04-02T18:24:09.660Z,4.04
2023-04-02T18:29:24.297Z,4.03
2023-04-02T18:34:47.957Z,4.14
2023-04-02T18:40:02.747Z,4.28
2023-04-02T18:45:16.321Z,4.42
2023-04-02T18:50:25.794Z,4.41
2023-04-02T18:55:31.396Z,4.49
2023-04-02T19:00:38.299Z,4.57
2023-04-02T19:05:47.826Z,4.66
2023-04-02T19:10:54.995Z,4.60
2023-04-02T19:16:20.903Z,4.62
2023-04-02T19:21:36.482Z,4.64
2023-04-02T19:26:45.142Z,4.70
2023-04-02T19:32:01.272Z,4.62
2023-04-02T19:37:14.298Z,4.61
2023-04-02T19:42:31.017Z,4.66
2023-04-02T19:47:34.050Z,4.70
2023-04-02T19:52:38.377Z,4.61
2023-04-02T19:57:41.538Z,4.63
2023-04-02T20:02:44.653Z,4.74
2023-04-02T20:07:49.089Z,4.66
2023-04-02T20:12:52.012Z,4.75
2023-04-02T20:17:55.423Z,4.47
2023-04-02T20:22:59.754Z,4.48
2023-04-02T20:28:03.998Z,4.26
2023-04-02T20:33:07.050Z,3.95
2023-04-02T20:38:11.743Z,3.89
2023-04-02T20:43:14.639Z,4.00
2023-04-02T20:48:17.557Z,3.83
2023-04-02T20:53:21.960Z,3.99
2023-04-02T20:58:24.852Z,3.98
2023-04-02T21:03:27.749Z,4.07
2023-04-02T21:08:32.031Z,3.87
2023-04-02T21:13:36.571Z,3.74
2023-04-02T21:18:39.445Z,3.87
2023-04-02T21:23:45.446Z,3.83
2023-04-02T21:28:48.511Z,3.86
2023-04-02T21:33:53.471Z,3.69
2023-04-02T21:38:59.684Z,3.65
2023-04-02T21:44:04.594Z,3.79
2023-04-02T21:49:08.407Z,3.71
2023-04-02T21:54:12.941Z,3.61
2023-04-02T21:59:17.344Z,3.64
2023-04-02T22:04:22.222Z,3.64
2023-04-02T22:09:27.538Z,3.64
2023-04-02T22:14:31.131Z,3.68
2023-04-02T22:19:34.110Z,3.47
2023-04-02T22:24:38.438Z,3.43
2023-04-02T22:29:41.377Z,3.43
2023-04-02T22:34:45.703Z,3.24
2023-04-02T22:39:50.081Z,3.23
2023-04-02T22:44:53.015Z,3.23
2023-04-02T22:49:55.922Z,3.23
2023-04-02T22:55:00.473Z,3.24
2023-04-02T23:00:04.796Z,3.03
2023-04-02T23:05:09.120Z,3.14
2023-04-02T23:10:13.564Z,2.87
2023-04-02T23:15:17.085Z,2.89
2023-04-02T23:20:20.334Z,2.89
2023-04-02T23:25:24.572Z,3.08
2023-04-02T23:30:27.482Z,3.19
2023-04-02T23:35:30.560Z,2.82
2023-04-02T23:40:35.215Z,2.86
2023-04-02T23:45:38.272Z,2.63
2023-04-02T23:50:41.290Z,2.77
2023-04-02T23:55:46.003Z,2.95
